• Join FlightAware (Why Join?)
  • Login
  • US Flag 
08:28AM EDT


 

Airport Tracker/Info


-or-


 

Live Flight TrackerFlight Track Log ✈ SKW7426 ✈ 20-Jun-2013 ✈ KMSP - KINL

Flight Track Log - Related Links

Times and Time Zones

All times are in EDT time to prevent confusion due to time zone crossing. See the SKW7426 flight status page for this flight to view local times or setup timezone preferences in your user account.

Time Position Orientation Groundspeed Altitude Reporting Facility
EDT Latitude Longitude Course Direction KTS MPH feet Rate Location/Type
12:37PM 44.8833 -93.1333 North 202 232 2,800  Level Minneapolis TRACON
12:38PM 44.9486 -93.0706 34° Northeast 247 284 6,200 2,220 Climbing Minneapolis Center
12:39PM 45.2035 -93.3667 North  Level FlightAware Approximate
12:39PM 45.0236 -93.0625 North 270 311 8,200  Level Minneapolis Center
12:40PM 45.3229 -93.3667 North  Level FlightAware Approximate
12:40PM 45.1158 -93.0508 North 306 352 10,700  Level Minneapolis Center
12:41PM 45.4422 -93.3667 North  Level FlightAware Approximate
12:41PM 45.2069 -93.0514 360° North 332 382 12,300  Level Minneapolis Center
12:42PM 45.5312 -93.3667 North  Level FlightAware Approximate
12:42PM 45.3011 -93.0631 355° North 341 392 14,400  Level Minneapolis Center
12:43PM 45.4039 -93.0706 357° North 344 396 16,400 1,740 Climbing Minneapolis Center
12:44PM 45.4994 -93.0814 355° North 345 397 18,000 1,320 Climbing Minneapolis Center
12:45PM 45.5972 -93.0917 356° North 352 405 19,200 1,200 Climbing Minneapolis Center
12:46PM 45.6983 -93.0911 360° North 364 419 20,500 1,080 Climbing Minneapolis Center
12:47PM 45.8031 -93.0800 North 378 435 21,500 960 Climbing Minneapolis Center
12:48PM 45.9111 -93.0731 North 388 447 22,500 720 Climbing Minneapolis Center
12:49PM 46.0428 -93.0603 North 392 451 23,000 240 Climbing Minneapolis Center
12:50PM 46.1597 -93.0500 North 411 473 23,000  Level Minneapolis Center
12:51PM 46.2822 -93.0489 360° North 433 498 23,000  Level Minneapolis Center
12:52PM 46.4044 -93.0703 353° North 441 507 23,000  Level Minneapolis Center
12:53PM 46.5275 -93.0872 355° North 444 511 23,000  Level Minneapolis Center
12:54PM 46.6517 -93.1056 354° North 447 514 23,000  Level Minneapolis Center
12:56PM 46.7972 -93.1272 354° North 443 510 23,000  Level Minneapolis Center
12:57PM 46.9300 -93.1481 354° North 408 470 23,000  Level Minneapolis Center
12:58PM 47.0411 -93.1650 354° North 402 463 23,000  Level Minneapolis Center
12:59PM 47.1508 -93.1817 354° North 398 458 23,000  Level Minneapolis Center
01:00PM 47.2592 -93.1981 354° North 394 453 23,000  Level Minneapolis Center
01:01PM 47.3694 -93.2172 353° North 390 449 23,000 -1,140 Level Minneapolis Center
01:02PM 47.4867 -93.2342 354° North 399 459 20,700 -2,160 Descending Minneapolis Center
01:03PM 47.5911 -93.2500 354° North 385 443 18,600 -2,220 Descending Minneapolis Center
01:04PM 47.7089 -93.2675 354° North 368 423 16,200 -2,220 Descending Minneapolis Center
01:05PM 47.8108 -93.2839 354° North 365 420 14,000 -1,800 Descending Minneapolis Center
01:06PM 47.9111 -93.3008 354° North 365 420 12,500 -1,620 Descending Minneapolis Center
01:07PM 48.0061 -93.3156 354° North 356 410 10,700 -1,440 Descending Minneapolis Center
01:08PM 48.0950 -93.3297 354° North 340 391 9,600 -1,500 Descending Minneapolis Center
01:09PM 48.1733 -93.3425 354° North 307 353 7,600 -1,620 Descending Minneapolis Center
01:10PM 48.2644 -93.3569 354° North 287 330 6,300 -1,260 Descending Minneapolis Center
01:11PM 48.3331 -93.3647 356° North 268 308 5,000 -1,440 Descending Minneapolis Center
01:12PM 48.3986 -93.3469 10° North 251 289 3,400 -1,080 Descending Minneapolis Center
01:13PM 48.4619 -93.3206 15° North 243 280 2,800 -480 Descending Minneapolis Center
01:14PM 48.5097 -93.3203 360° North 205 236 2,500 -240 Descending Minneapolis Center
01:15PM 48.5417 -93.3528 326° Northwest 192 221 2,400 -120 Descending Minneapolis Center